sensor_id;sensor_type;location;lat;lon;timestamp;pressure;altitude;pressure_sealevel;temperature;humidity
50292;BME280;36190;54.980;73.388;2022-10-31T00:00:49;100359.13;;;-4.04;83.21
50292;BME280;36190;54.980;73.388;2022-10-31T00:03:17;100356.63;;;-4.07;82.85
50292;BME280;36190;54.980;73.388;2022-10-31T00:05:46;100364.31;;;-4.04;83.54
50292;BME280;36190;54.980;73.388;2022-10-31T00:08:14;100369.59;;;-4.06;83.20
50292;BME280;36190;54.980;73.388;2022-10-31T00:10:43;100360.00;;;-4.05;83.32
50292;BME280;36190;54.980;73.388;2022-10-31T00:13:12;100362.59;;;-4.05;83.31
50292;BME280;36190;54.980;73.388;2022-10-31T00:15:40;100355.81;;;-4.08;83.37
50292;BME280;36190;54.980;73.388;2022-10-31T00:18:09;100364.63;;;-4.10;83.21
50292;BME280;36190;54.980;73.388;2022-10-31T00:20:38;100353.72;;;-4.19;83.08
50292;BME280;36190;54.980;73.388;2022-10-31T00:23:06;100363.06;;;-4.15;83.07
50292;BME280;36190;54.980;73.388;2022-10-31T00:25:37;100349.56;;;-4.23;83.06
50292;BME280;36190;54.980;73.388;2022-10-31T00:28:05;100363.06;;;-4.15;83.06
50292;BME280;36190;54.980;73.388;2022-10-31T00:30:33;100365.66;;;-4.15;83.04
50292;BME280;36190;54.980;73.388;2022-10-31T00:33:03;100363.97;;;-4.16;82.98
50292;BME280;36190;54.980;73.388;2022-10-31T00:35:32;100365.66;;;-4.15;82.95
50292;BME280;36190;54.980;73.388;2022-10-31T00:37:59;100364.75;;;-4.14;82.93
50292;BME280;36190;54.980;73.388;2022-10-31T00:40:27;100369.97;;;-4.14;83.02
50292;BME280;36190;54.980;73.388;2022-10-31T00:42:54;100378.69;;;-4.15;82.79
50292;BME280;36190;54.980;73.388;2022-10-31T00:45:21;100382.09;;;-4.12;83.01
50292;BME280;36190;54.980;73.388;2022-10-31T00:47:49;100373.34;;;-4.11;83.07
50292;BME280;36190;54.980;73.388;2022-10-31T00:50:16;100371.56;;;-4.11;82.96
50292;BME280;36190;54.980;73.388;2022-10-31T00:52:45;100368.16;;;-4.11;82.91
50292;BME280;36190;54.980;73.388;2022-10-31T00:55:12;100372.50;;;-4.12;82.78
50292;BME280;36190;54.980;73.388;2022-10-31T00:57:40;100369.19;;;-4.16;82.81
50292;BME280;36190;54.980;73.388;2022-10-31T01:00:08;100371.88;;;-4.17;82.78
50292;BME280;36190;54.980;73.388;2022-10-31T01:02:36;100374.56;;;-4.19;82.77
50292;BME280;36190;54.980;73.388;2022-10-31T01:05:04;100372.88;;;-4.20;82.77
50292;BME280;36190;54.980;73.388;2022-10-31T01:07:31;100375.50;;;-4.20;82.83
50292;BME280;36190;54.980;73.388;2022-10-31T01:10:00;100382.38;;;-4.19;82.81
50292;BME280;36190;54.980;73.388;2022-10-31T01:12:27;100379.78;;;-4.19;82.73
50292;BME280;36190;54.980;73.388;2022-10-31T01:14:55;100386.75;;;-4.19;82.76
50292;BME280;36190;54.980;73.388;2022-10-31T01:17:22;100385.91;;;-4.20;82.75
50292;BME280;36190;54.980;73.388;2022-10-31T01:19:50;100386.75;;;-4.19;82.78
50292;BME280;36190;54.980;73.388;2022-10-31T01:22:17;100386.66;;;-4.18;82.71
50292;BME280;36190;54.980;73.388;2022-10-31T01:24:44;100385.75;;;-4.17;82.78
50292;BME280;36190;54.980;73.388;2022-10-31T01:27:13;100387.44;;;-4.16;82.93
50292;BME280;36190;54.980;73.388;2022-10-31T01:29:41;100383.53;;;-4.24;82.73
50292;BME280;36190;54.980;73.388;2022-10-31T01:32:08;100382.28;;;-4.17;82.64
50292;BME280;36190;54.980;73.388;2022-10-31T01:34:35;100401.38;;;-4.17;82.72
50292;BME280;36190;54.980;73.388;2022-10-31T01:37:03;100390.97;;;-4.17;82.73
50292;BME280;36190;54.980;73.388;2022-10-31T01:39:30;100390.97;;;-4.17;82.81
50292;BME280;36190;54.980;73.388;2022-10-31T01:41:58;100394.34;;;-4.15;82.71
50292;BME280;36190;54.980;73.388;2022-10-31T01:44:56;100393.19;;;-4.09;82.83
50292;BME280;36190;54.980;73.388;2022-10-31T01:47:33;100393.81;;;-4.04;82.94
50292;BME280;36190;54.980;73.388;2022-10-31T01:50:03;100376.56;;;-4.06;82.72
50292;BME280;36190;54.980;73.388;2022-10-31T01:52:37;100391.31;;;-3.88;82.67
50292;BME280;36190;54.980;73.388;2022-10-31T01:55:09;100392.56;;;-3.77;82.58
50292;BME280;36190;54.980;73.388;2022-10-31T01:57:41;100392.09;;;-3.68;82.40
50292;BME280;36190;54.980;73.388;2022-10-31T02:00:13;100396.72;;;-3.55;82.24
50292;BME280;36190;54.980;73.388;2022-10-31T02:02:41;100391.03;;;-3.46;82.08
50292;BME280;36190;54.980;73.388;2022-10-31T02:05:11;100390.69;;;-3.40;82.05
50292;BME280;36190;54.980;73.388;2022-10-31T02:07:43;100392.84;;;-3.30;81.59
50292;BME280;36190;54.980;73.388;2022-10-31T02:10:12;100393.31;;;-3.22;81.48
50292;BME280;36190;54.980;73.388;2022-10-31T02:12:40;100395.56;;;-3.16;81.17
50292;BME280;36190;54.980;73.388;2022-10-31T02:15:11;100390.97;;;-3.11;81.14
50292;BME280;36190;54.980;73.388;2022-10-31T02:17:38;100400.31;;;-3.07;80.76
50292;BME280;36190;54.980;73.388;2022-10-31T02:20:13;100396.56;;;-3.01;80.69
50292;BME280;36190;54.980;73.388;2022-10-31T02:22:54;100395.41;;;-2.95;80.77
50292;BME280;36190;54.980;73.388;2022-10-31T02:25:43;100401.13;;;-2.88;80.55
50292;BME280;36190;54.980;73.388;2022-10-31T02:28:33;100402.56;;;-2.83;80.42
50292;BME280;36190;54.980;73.388;2022-10-31T02:31:18;100407.38;;;-2.75;80.60
50292;BME280;36190;54.980;73.388;2022-10-31T02:33:52;100415.81;;;-2.70;80.37
50292;BME280;36190;54.980;73.388;2022-10-31T02:36:25;100410.25;;;-2.64;80.36
50292;BME280;36190;54.980;73.388;2022-10-31T02:39:01;100412.47;;;-2.56;80.45
50292;BME280;36190;54.980;73.388;2022-10-31T02:41:35;100413.84;;;-2.49;80.35
50292;BME280;36190;54.980;73.388;2022-10-31T02:44:09;100412.53;;;-2.41;80.20
50292;BME280;36190;54.980;73.388;2022-10-31T02:46:44;100419.31;;;-2.37;80.29
50292;BME280;36190;54.980;73.388;2022-10-31T02:49:18;100428.66;;;-2.33;80.25
50292;BME280;36190;54.980;73.388;2022-10-31T02:51:49;100434.06;;;-2.36;80.16
50292;BME280;36190;54.980;73.388;2022-10-31T02:54:19;100428.81;;;-2.36;80.37
50292;BME280;36190;54.980;73.388;2022-10-31T02:56:49;100417.56;;;-2.37;80.60
50292;BME280;36190;54.980;73.388;2022-10-31T02:59:17;100430.59;;;-2.21;80.39
50292;BME280;36190;54.980;73.388;2022-10-31T03:01:57;100433.81;;;-2.15;80.40
50292;BME280;36190;54.980;73.388;2022-10-31T03:07:40;100440.03;;;-2.02;80.29
50292;BME280;36190;54.980;73.388;2022-10-31T03:10:16;100432.78;;;-1.97;80.43
50292;BME280;36190;54.980;73.388;2022-10-31T03:12:53;100438.94;;;-1.98;80.02
50292;BME280;36190;54.980;73.388;2022-10-31T03:15:27;100436.59;;;-2.02;79.91
50292;BME280;36190;54.980;73.388;2022-10-31T03:18:01;100426.38;;;-2.07;79.77
50292;BME280;36190;54.980;73.388;2022-10-31T03:20:36;100448.28;;;-1.94;79.61
50292;BME280;36190;54.980;73.388;2022-10-31T03:23:06;100427.38;;;-1.94;79.24
50292;BME280;36190;54.980;73.388;2022-10-31T03:25:37;100428.03;;;-1.90;79.17
50292;BME280;36190;54.980;73.388;2022-10-31T03:28:05;100437.22;;;-1.83;79.09
50292;BME280;36190;54.980;73.388;2022-10-31T03:30:35;100444.72;;;-1.76;78.96
50292;BME280;36190;54.980;73.388;2022-10-31T03:33:10;100445.22;;;-1.70;78.75
50292;BME280;36190;54.980;73.388;2022-10-31T03:35:42;100446.75;;;-1.66;78.52
50292;BME280;36190;54.980;73.388;2022-10-31T03:38:13;100441.16;;;-1.59;78.55
50292;BME280;36190;54.980;73.388;2022-10-31T03:40:43;100457.44;;;-1.54;78.51
50292;BME280;36190;54.980;73.388;2022-10-31T03:43:16;100439.59;;;-1.47;78.32
50292;BME280;36190;54.980;73.388;2022-10-31T03:45:46;100444.38;;;-1.40;78.35
50292;BME280;36190;54.980;73.388;2022-10-31T03:48:17;100439.47;;;-1.30;78.06
50292;BME280;36190;54.980;73.388;2022-10-31T03:50:51;100438.41;;;-1.27;78.09
50292;BME280;36190;54.980;73.388;2022-10-31T03:53:24;100441.97;;;-1.28;78.22
50292;BME280;36190;54.980;73.388;2022-10-31T03:55:59;100451.44;;;-1.26;78.10
50292;BME280;36190;54.980;73.388;2022-10-31T03:58:31;100452.28;;;-1.25;77.90
50292;BME280;36190;54.980;73.388;2022-10-31T04:01:05;100461.28;;;-1.15;78.14
50292;BME280;36190;54.980;73.388;2022-10-31T04:03:37;100459.25;;;-1.09;77.96
50292;BME280;36190;54.980;73.388;2022-10-31T04:06:08;100459.78;;;-1.04;78.07
50292;BME280;36190;54.980;73.388;2022-10-31T04:08:40;100470.84;;;-0.99;77.97
50292;BME280;36190;54.980;73.388;2022-10-31T04:11:11;100455.44;;;-0.89;77.94
50292;BME280;36190;54.980;73.388;2022-10-31T04:13:42;100460.19;;;-0.81;77.65
50292;BME280;36190;54.980;73.388;2022-10-31T04:16:11;100464.31;;;-0.77;77.86
50292;BME280;36190;54.980;73.388;2022-10-31T04:18:42;100459.81;;;-0.75;77.54
50292;BME280;36190;54.980;73.388;2022-10-31T04:21:09;100460.47;;;-0.72;77.72
50292;BME280;36190;54.980;73.388;2022-10-31T04:23:37;100463.00;;;-0.70;77.58
50292;BME280;36190;54.980;73.388;2022-10-31T04:26:04;100463.66;;;-0.66;77.58
50292;BME280;36190;54.980;73.388;2022-10-31T04:28:32;100453.81;;;-0.63;77.66
50292;BME280;36190;54.980;73.388;2022-10-31T04:30:59;100450.25;;;-0.62;77.75
50292;BME280;36190;54.980;73.388;2022-10-31T04:33:27;100449.44;;;-0.62;77.55
50292;BME280;36190;54.980;73.388;2022-10-31T04:35:56;100457.22;;;-0.61;77.60
50292;BME280;36190;54.980;73.388;2022-10-31T04:38:23;100463.94;;;-0.57;77.10
50292;BME280;36190;54.980;73.388;2022-10-31T04:40:50;100468.81;;;-0.50;77.31
50292;BME280;36190;54.980;73.388;2022-10-31T04:43:18;100469.34;;;-0.45;77.17
50292;BME280;36190;54.980;73.388;2022-10-31T04:45:45;100468.97;;;-0.39;77.11
50292;BME280;36190;54.980;73.388;2022-10-31T04:48:13;100460.00;;;-0.35;76.90
50292;BME280;36190;54.980;73.388;2022-10-31T04:50:40;100467.47;;;-0.29;76.96
50292;BME280;36190;54.980;73.388;2022-10-31T04:53:09;100459.31;;;-0.24;76.76
50292;BME280;36190;54.980;73.388;2022-10-31T04:55:36;100456.50;;;-0.21;76.58
50292;BME280;36190;54.980;73.388;2022-10-31T04:58:04;100454.53;;;-0.17;76.47
50292;BME280;36190;54.980;73.388;2022-10-31T05:00:31;100445.28;;;-0.23;76.59
50292;BME280;36190;54.980;73.388;2022-10-31T05:02:58;100463.13;;;-0.15;76.31
50292;BME280;36190;54.980;73.388;2022-10-31T05:05:30;100462.84;;;-0.10;76.40
50292;BME280;36190;54.980;73.388;2022-10-31T05:07:58;100462.53;;;-0.06;76.39
50292;BME280;36190;54.980;73.388;2022-10-31T05:10:29;100460.28;;;0.03;76.38
50292;BME280;36190;54.980;73.388;2022-10-31T05:12:58;100465.34;;;0.06;76.39
50292;BME280;36190;54.980;73.388;2022-10-31T05:15:27;100453.03;;;0.06;76.06
50292;BME280;36190;54.980;73.388;2022-10-31T05:17:55;100462.50;;;0.09;76.04
50292;BME280;36190;54.980;73.388;2022-10-31T05:20:25;100450.53;;;0.05;76.01
50292;BME280;36190;54.980;73.388;2022-10-31T05:22:54;100479.63;;;0.15;75.86
50292;BME280;36190;54.980;73.388;2022-10-31T05:25:23;100473.56;;;0.14;75.87
50292;BME280;36190;54.980;73.388;2022-10-31T05:27:54;100469.06;;;0.16;75.85
50292;BME280;36190;54.980;73.388;2022-10-31T05:30:23;100477.00;;;0.15;75.65
50292;BME280;36190;54.980;73.388;2022-10-31T05:32:51;100476.91;;;0.16;75.47
50292;BME280;36190;54.980;73.388;2022-10-31T05:35:24;100473.44;;;0.16;75.55
50292;BME280;36190;54.980;73.388;2022-10-31T05:37:52;100475.25;;;0.15;75.61
50292;BME280;36190;54.980;73.388;2022-10-31T05:40:20;100488.28;;;0.17;75.31
50292;BME280;36190;54.980;73.388;2022-10-31T05:42:51;100492.38;;;0.21;75.45
50292;BME280;36190;54.980;73.388;2022-10-31T05:45:21;100488.63;;;0.25;75.29
50292;BME280;36190;54.980;73.388;2022-10-31T05:47:52;100490.59;;;0.21;75.06
50292;BME280;36190;54.980;73.388;2022-10-31T05:50:20;100493.53;;;0.17;75.27
50292;BME280;36190;54.980;73.388;2022-10-31T05:52:54;100495.03;;;0.06;75.28
50292;BME280;36190;54.980;73.388;2022-10-31T05:55:22;100504.28;;;0.12;75.33
50292;BME280;36190;54.980;73.388;2022-10-31T05:57:49;100507.56;;;0.16;75.28
50292;BME280;36190;54.980;73.388;2022-10-31T06:00:16;100499.03;;;0.12;75.24
50292;BME280;36190;54.980;73.388;2022-10-31T06:02:45;100502.31;;;0.16;75.37
50292;BME280;36190;54.980;73.388;2022-10-31T06:05:13;100508.19;;;0.19;75.11
50292;BME280;36190;54.980;73.388;2022-10-31T06:07:40;100511.13;;;0.15;75.32
50292;BME280;36190;54.980;73.388;2022-10-31T06:10:08;100511.25;;;0.13;75.08
50292;BME280;36190;54.980;73.388;2022-10-31T06:12:36;100514.50;;;0.17;75.20
50292;BME280;36190;54.980;73.388;2022-10-31T06:15:07;100525.28;;;0.12;75.28
50292;BME280;36190;54.980;73.388;2022-10-31T06:17:35;100534.31;;;-0.07;75.40
50292;BME280;36190;54.980;73.388;2022-10-31T06:20:05;100534.53;;;-0.24;75.55
50292;BME280;36190;54.980;73.388;2022-10-31T06:22:33;100536.69;;;-0.31;76.00
50292;BME280;36190;54.980;73.388;2022-10-31T06:25:00;100536.94;;;-0.21;76.16
50292;BME280;36190;54.980;73.388;2022-10-31T06:27:28;100540.13;;;-0.16;76.00
50292;BME280;36190;54.980;73.388;2022-10-31T06:29:56;100539.00;;;-0.41;75.88
50292;BME280;36190;54.980;73.388;2022-10-31T06:32:23;100534.97;;;-0.61;76.39
50292;BME280;36190;54.980;73.388;2022-10-31T06:34:50;100538.72;;;-0.65;76.78
50292;BME280;36190;54.980;73.388;2022-10-31T06:37:19;100545.75;;;-0.51;77.17
50292;BME280;36190;54.980;73.388;2022-10-31T06:39:46;100547.47;;;-0.36;77.22
50292;BME280;36190;54.980;73.388;2022-10-31T06:42:15;100545.94;;;-0.25;76.81
50292;BME280;36190;54.980;73.388;2022-10-31T06:44:43;100551.75;;;-0.20;76.68
50292;BME280;36190;54.980;73.388;2022-10-31T06:47:10;100555.66;;;-0.13;76.67
50292;BME280;36190;54.980;73.388;2022-10-31T06:49:37;100553.25;;;-0.16;76.54
50292;BME280;36190;54.980;73.388;2022-10-31T06:52:05;100547.47;;;-0.36;76.39
50292;BME280;36190;54.980;73.388;2022-10-31T06:54:34;100560.47;;;-0.49;76.75
50292;BME280;36190;54.980;73.388;2022-10-31T06:57:01;100548.81;;;-0.59;77.13
50292;BME280;36190;54.980;73.388;2022-10-31T06:59:29;100544.44;;;-0.59;77.43
50292;BME280;36190;54.980;73.388;2022-10-31T07:01:57;100556.06;;;-0.48;77.40
50292;BME280;36190;54.980;73.388;2022-10-31T07:04:25;100562.31;;;-0.51;77.25
50292;BME280;36190;54.980;73.388;2022-10-31T07:06:53;100556.81;;;-0.61;77.33
50292;BME280;36190;54.980;73.388;2022-10-31T07:09:20;100552.38;;;-0.60;77.51
50292;BME280;36190;54.980;73.388;2022-10-31T07:11:51;100563.34;;;-0.53;77.38
50292;BME280;36190;54.980;73.388;2022-10-31T07:14:19;100564.84;;;-0.49;77.38
50292;BME280;36190;54.980;73.388;2022-10-31T07:16:48;100554.94;;;-0.59;77.21
50292;BME280;36190;54.980;73.388;2022-10-31T07:19:17;100563.34;;;-0.53;77.50
50292;BME280;36190;54.980;73.388;2022-10-31T07:21:44;100570.47;;;-0.56;77.29
50292;BME280;36190;54.980;73.388;2022-10-31T07:24:12;100566.63;;;-0.64;77.15
50292;BME280;36190;54.980;73.388;2022-10-31T07:26:39;100557.53;;;-0.73;77.58
50292;BME280;36190;54.980;73.388;2022-10-31T07:29:09;100562.94;;;-0.76;77.66
50292;BME280;36190;54.980;73.388;2022-10-31T07:31:36;100562.94;;;-0.76;77.68
50292;BME280;36190;54.980;73.388;2022-10-31T07:34:04;100568.34;;;-0.79;77.85
50292;BME280;36190;54.980;73.388;2022-10-31T07:36:31;100573.44;;;-0.76;78.02
50292;BME280;36190;54.980;73.388;2022-10-31T07:38:59;100575.22;;;-0.62;78.04
50292;BME280;36190;54.980;73.388;2022-10-31T07:41:27;100579.06;;;-0.53;77.73
50292;BME280;36190;54.980;73.388;2022-10-31T07:43:55;100581.25;;;-0.46;77.73
50292;BME280;36190;54.980;73.388;2022-10-31T07:46:24;100578.81;;;-0.34;77.51
50292;BME280;36190;54.980;73.388;2022-10-31T07:48:51;100588.09;;;-0.29;77.27
50292;BME280;36190;54.980;73.388;2022-10-31T07:51:18;100585.94;;;-0.36;77.10
50292;BME280;36190;54.980;73.388;2022-10-31T07:53:46;100577.03;;;-0.48;77.15
50292;BME280;36190;54.980;73.388;2022-10-31T07:56:13;100580.50;;;-0.48;77.64
50292;BME280;36190;54.980;73.388;2022-10-31T07:58:40;100579.66;;;-0.34;77.40
50292;BME280;36190;54.980;73.388;2022-10-31T08:01:08;100582.47;;;-0.22;77.20
50292;BME280;36190;54.980;73.388;2022-10-31T08:03:39;100577.72;;;-0.16;76.73
50292;BME280;36190;54.980;73.388;2022-10-31T08:06:07;100588.09;;;-0.29;76.51
50292;BME280;36190;54.980;73.388;2022-10-31T08:08:34;100595.19;;;-0.31;76.82
50292;BME280;36190;54.980;73.388;2022-10-31T08:11:02;100598.03;;;-0.34;76.70
50292;BME280;36190;54.980;73.388;2022-10-31T08:13:30;100598.97;;;-0.35;76.80
50292;BME280;36190;54.980;73.388;2022-10-31T08:15:57;100593.72;;;-0.35;77.05
50292;BME280;36190;54.980;73.388;2022-10-31T08:18:29;100601.09;;;-0.27;77.12
50292;BME280;36190;54.980;73.388;2022-10-31T08:20:58;100600.94;;;-0.24;76.85
50292;BME280;36190;54.980;73.388;2022-10-31T08:23:26;100606.63;;;-0.17;76.83
50292;BME280;36190;54.980;73.388;2022-10-31T08:25:53;100600.63;;;-0.05;76.58
50292;BME280;36190;54.980;73.388;2022-10-31T08:28:20;100608.63;;;-0.06;76.24
50292;BME280;36190;54.980;73.388;2022-10-31T08:30:48;100604.97;;;-0.18;76.47
50292;BME280;36190;54.980;73.388;2022-10-31T08:33:17;100588.38;;;-0.19;76.62
50292;BME280;36190;54.980;73.388;2022-10-31T08:35:45;100593.72;;;-0.20;76.52
50292;BME280;36190;54.980;73.388;2022-10-31T08:38:14;100595.97;;;-0.29;76.63
50292;BME280;36190;54.980;73.388;2022-10-31T08:40:42;100596.34;;;-0.35;76.75
50292;BME280;36190;54.980;73.388;2022-10-31T08:43:11;100595.19;;;-0.31;76.91
50292;BME280;36190;54.980;73.388;2022-10-31T08:45:39;100610.38;;;-0.21;76.88
50292;BME280;36190;54.980;73.388;2022-10-31T08:48:11;100600.25;;;-0.13;76.89
50292;BME280;36190;54.980;73.388;2022-10-31T08:50:39;100616.00;;;0.02;76.84
50292;BME280;36190;54.980;73.388;2022-10-31T08:53:08;100611.69;;;0.15;76.50
50292;BME280;36190;54.980;73.388;2022-10-31T08:55:38;100613.75;;;0.24;76.28
50292;BME280;36190;54.980;73.388;2022-10-31T08:58:09;100609.50;;;0.36;76.06
50292;BME280;36190;54.980;73.388;2022-10-31T09:00:37;100614.38;;;0.43;75.65
50292;BME280;36190;54.980;73.388;2022-10-31T09:03:08;100607.19;;;0.32;75.62
50292;BME280;36190;54.980;73.388;2022-10-31T09:05:36;100613.75;;;0.24;75.73
50292;BME280;36190;54.980;73.388;2022-10-31T09:08:05;100613.81;;;0.23;76.04
50292;BME280;36190;54.980;73.388;2022-10-31T09:10:34;100607.25;;;0.30;76.21
50292;BME280;36190;54.980;73.388;2022-10-31T09:13:06;100614.16;;;0.46;75.97
50292;BME280;36190;54.980;73.388;2022-10-31T09:15:35;100606.66;;;0.54;75.74
50292;BME280;36190;54.980;73.388;2022-10-31T09:18:04;100603.72;;;0.59;75.50
50292;BME280;36190;54.980;73.388;2022-10-31T09:20:33;100595.84;;;0.59;75.37
50292;BME280;36190;54.980;73.388;2022-10-31T09:23:02;100603.56;;;0.62;75.03
50292;BME280;36190;54.980;73.388;2022-10-31T09:25:29;100610.38;;;0.64;75.18
50292;BME280;36190;54.980;73.388;2022-10-31T09:27:57;100614.88;;;0.62;75.16
50292;BME280;36190;54.980;73.388;2022-10-31T09:30:29;100602.63;;;0.48;74.90
50292;BME280;36190;54.980;73.388;2022-10-31T09:32:58;100627.00;;;0.50;74.88
50292;BME280;36190;54.980;73.388;2022-10-31T09:35:25;100620.38;;;0.45;75.13
50292;BME280;36190;54.980;73.388;2022-10-31T09:37:56;100623.66;;;0.48;75.06
50292;BME280;36190;54.980;73.388;2022-10-31T09:40:29;100618.19;;;0.51;75.15
50292;BME280;36190;54.980;73.388;2022-10-31T09:43:05;100617.59;;;0.61;75.05
50292;BME280;36190;54.980;73.388;2022-10-31T09:45:41;100623.50;;;0.64;74.87
50292;BME280;36190;54.980;73.388;2022-10-31T09:48:23;100631.28;;;0.66;74.74
50292;BME280;36190;54.980;73.388;2022-10-31T09:50:58;100630.25;;;0.68;74.61
50292;BME280;36190;54.980;73.388;2022-10-31T09:53:34;100633.53;;;0.72;74.60
50292;BME280;36190;54.980;73.388;2022-10-31T09:56:06;100632.59;;;0.73;74.61
50292;BME280;36190;54.980;73.388;2022-10-31T09:58:40;100640.66;;;0.70;74.47
50292;BME280;36190;54.980;73.388;2022-10-31T10:01:20;100647.44;;;0.60;74.54
50292;BME280;36190;54.980;73.388;2022-10-31T10:03:52;100642.59;;;0.53;74.63
50292;BME280;36190;54.980;73.388;2022-10-31T10:06:23;100640.50;;;0.59;74.84
50292;BME280;36190;54.980;73.388;2022-10-31T10:08:51;100648.19;;;0.62;74.91
50292;BME280;36190;54.980;73.388;2022-10-31T10:11:32;100640.03;;;0.66;74.63
50292;BME280;36190;54.980;73.388;2022-10-31T10:14:21;100651.91;;;0.72;74.59
50292;BME280;36190;54.980;73.388;2022-10-31T10:17:11;100651.72;;;0.75;74.34
50292;BME280;36190;54.980;73.388;2022-10-31T10:22:38;100658.50;;;0.50;74.34
50292;BME280;36190;54.980;73.388;2022-10-31T10:25:27;100670.16;;;0.46;74.33
50292;BME280;36190;54.980;73.388;2022-10-31T10:28:06;100667.63;;;0.30;74.63
50292;BME280;36190;54.980;73.388;2022-10-31T10:30:40;100675.22;;;0.35;74.99
50292;BME280;36190;54.980;73.388;2022-10-31T10:33:13;100676.72;;;0.39;74.85
50292;BME280;36190;54.980;73.388;2022-10-31T10:35:45;100653.47;;;0.33;74.62
50292;BME280;36190;54.980;73.388;2022-10-31T10:38:20;100666.59;;;0.33;74.69
50292;BME280;36190;54.980;73.388;2022-10-31T10:40:50;100680.84;;;0.29;74.64
50292;BME280;36190;54.980;73.388;2022-10-31T10:43:23;100684.59;;;0.24;74.75
50292;BME280;36190;54.980;73.388;2022-10-31T10:46:03;100677.84;;;0.20;75.11
50292;BME280;36190;54.980;73.388;2022-10-31T10:48:53;100685.53;;;0.09;74.91
50292;BME280;36190;54.980;73.388;2022-10-31T10:51:22;100681.72;;;0.00;75.59
50292;BME280;36190;54.980;73.388;2022-10-31T10:54:07;100689.28;;;0.05;75.56
50292;BME280;36190;54.980;73.388;2022-10-31T10:56:49;100690.22;;;0.04;75.55
50292;BME280;36190;54.980;73.388;2022-10-31T10:59:20;100675.59;;;-0.15;75.41
50292;BME280;36190;54.980;73.388;2022-10-31T11:01:49;100698.53;;;-0.19;75.79
50292;BME280;36190;54.980;73.388;2022-10-31T11:04:31;100686.16;;;-0.31;75.93
50292;BME280;36190;54.980;73.388;2022-10-31T11:07:03;100688.72;;;-0.46;76.25
50292;BME280;36190;54.980;73.388;2022-10-31T11:09:31;100682.34;;;-0.56;76.34
50292;BME280;36190;54.980;73.388;2022-10-31T11:12:07;100687.75;;;-0.59;76.63
50292;BME280;36190;54.980;73.388;2022-10-31T11:14:42;100685.38;;;-0.64;76.84
50292;BME280;36190;54.980;73.388;2022-10-31T11:17:19;100697.16;;;-0.71;77.01
50292;BME280;36190;54.980;73.388;2022-10-31T11:20:00;100701.03;;;-0.78;77.32
50292;BME280;36190;54.980;73.388;2022-10-31T11:22:27;100696.50;;;-0.91;77.39
50292;BME280;36190;54.980;73.388;2022-10-31T11:24:55;100691.81;;;-1.00;77.56
50292;BME280;36190;54.980;73.388;2022-10-31T11:27:25;100700.94;;;-1.07;77.76
50292;BME280;36190;54.980;73.388;2022-10-31T11:30:04;100679.06;;;-1.22;78.32
50292;BME280;36190;54.980;73.388;2022-10-31T11:32:31;100686.75;;;-1.19;78.22
50292;BME280;36190;54.980;73.388;2022-10-31T11:35:09;100687.94;;;-1.25;78.50
50292;BME280;36190;54.980;73.388;2022-10-31T11:37:42;100698.78;;;-1.33;78.66
50292;BME280;36190;54.980;73.388;2022-10-31T11:40:16;100699.22;;;-1.41;79.00
50292;BME280;36190;54.980;73.388;2022-10-31T11:42:46;100704.63;;;-1.44;78.97
50292;BME280;36190;54.980;73.388;2022-10-31T11:45:16;100692.97;;;-1.54;79.25
50292;BME280;36190;54.980;73.388;2022-10-31T11:47:47;100711.38;;;-1.40;79.44
50292;BME280;36190;54.980;73.388;2022-10-31T11:50:22;100710.28;;;-1.35;79.51
50292;BME280;36190;54.980;73.388;2022-10-31T11:52:51;100720.84;;;-1.21;79.51
50292;BME280;36190;54.980;73.388;2022-10-31T11:55:31;100723.22;;;-1.16;79.61
50292;BME280;36190;54.980;73.388;2022-10-31T11:57:59;100719.09;;;-1.20;79.23
50292;BME280;36190;54.980;73.388;2022-10-31T12:00:29;100715.94;;;-1.27;79.23
50292;BME280;36190;54.980;73.388;2022-10-31T12:03:14;100712.75;;;-1.32;79.92
50292;BME280;36190;54.980;73.388;2022-10-31T12:05:45;100714.94;;;-1.41;79.74
50292;BME280;36190;54.980;73.388;2022-10-31T12:08:14;100714.41;;;-1.47;79.79
50292;BME280;36190;54.980;73.388;2022-10-31T12:10:48;100715.56;;;-1.53;80.16
50292;BME280;36190;54.980;73.388;2022-10-31T12:13:32;100720.81;;;-1.53;80.53
50292;BME280;36190;54.980;73.388;2022-10-31T12:16:07;100710.53;;;-1.56;80.58
50292;BME280;36190;54.980;73.388;2022-10-31T12:18:48;100718.19;;;-1.53;80.91
50292;BME280;36190;54.980;73.388;2022-10-31T12:21:34;100719.81;;;-1.50;80.85
50292;BME280;36190;54.980;73.388;2022-10-31T12:24:12;100720.81;;;-1.53;80.89
50292;BME280;36190;54.980;73.388;2022-10-31T12:26:51;100721.66;;;-1.53;80.96
50292;BME280;36190;54.980;73.388;2022-10-31T12:29:35;100722.00;;;-1.59;81.03
50292;BME280;36190;54.980;73.388;2022-10-31T12:32:17;100724.69;;;-1.60;81.13
50292;BME280;36190;54.980;73.388;2022-10-31T12:35:05;100729.91;;;-1.60;81.28
50292;BME280;36190;54.980;73.388;2022-10-31T12:37:47;100737.19;;;-1.66;81.39
50292;BME280;36190;54.980;73.388;2022-10-31T12:40:35;100727.97;;;-1.73;81.61
50292;BME280;36190;54.980;73.388;2022-10-31T12:43:20;100736.13;;;-1.79;81.71
50292;BME280;36190;54.980;73.388;2022-10-31T12:45:53;100732.88;;;-1.84;81.88
50292;BME280;36190;54.980;73.388;2022-10-31T12:51:34;100727.38;;;-1.96;82.25
50292;BME280;36190;54.980;73.388;2022-10-31T12:54:23;100737.59;;;-1.91;82.46
50292;BME280;36190;54.980;73.388;2022-10-31T12:57:01;100738.59;;;-1.94;82.59
50292;BME280;36190;54.980;73.388;2022-10-31T12:59:35;100737.06;;;-1.98;82.53
50292;BME280;36190;54.980;73.388;2022-10-31T13:02:09;100736.91;;;-1.95;82.62
50292;BME280;36190;54.980;73.388;2022-10-31T13:04:44;100743.94;;;-1.95;82.85
50292;BME280;36190;54.980;73.388;2022-10-31T13:07:16;100735.38;;;-1.99;82.83
50292;BME280;36190;54.980;73.388;2022-10-31T13:09:52;100737.22;;;-2.01;82.76
50292;BME280;36190;54.980;73.388;2022-10-31T13:12:22;100744.28;;;-2.03;82.90